createdAt,value
2017-06-15T00:00:01.838Z,62.10
2017-06-15T00:02:35.586Z,62.80
2017-06-15T00:05:09.428Z,63.80
2017-06-15T00:07:43.877Z,64.60
2017-06-15T00:10:17.880Z,63.60
2017-06-15T00:12:52.309Z,64.30
2017-06-15T00:15:26.302Z,64.30
2017-06-15T00:18:00.846Z,63.20
2017-06-15T00:20:34.940Z,62.90
2017-06-15T00:23:08.530Z,63.10
2017-06-15T00:25:42.349Z,63.60
2017-06-15T00:28:16.889Z,63.10
2017-06-15T00:30:51.576Z,62.30
2017-06-15T00:33:25.197Z,64.40
2017-06-15T00:35:59.124Z,63.90
2017-06-15T00:38:34.360Z,63.80
2017-06-15T00:41:09.126Z,63.90
2017-06-15T00:43:43.086Z,64.50
2017-06-15T00:46:16.917Z,64.20
2017-06-15T00:48:51.433Z,65.40
2017-06-15T00:51:25.505Z,65.20
2017-06-15T00:53:59.953Z,64.40
2017-06-15T00:56:34.045Z,64.20
2017-06-15T00:59:08.493Z,63.40
2017-06-15T01:01:42.545Z,63.40
2017-06-15T01:04:16.363Z,65.30
2017-06-15T01:06:50.172Z,65.10
2017-06-15T01:09:23.773Z,64.00
2017-06-15T01:11:57.616Z,64.90
2017-06-15T01:14:31.450Z,65.10
2017-06-15T01:17:05.301Z,64.70
2017-06-15T01:19:39.006Z,62.70
2017-06-15T01:22:12.844Z,62.80
2017-06-15T01:24:46.587Z,63.30
2017-06-15T01:27:21.446Z,63.40
2017-06-15T01:29:55.198Z,64.10
2017-06-15T01:32:29.044Z,64.30
2017-06-15T01:35:04.341Z,64.80
2017-06-15T01:37:39.017Z,65.90
2017-06-15T01:40:12.804Z,65.80
2017-06-15T01:42:46.653Z,65.40
2017-06-15T01:45:20.461Z,64.90
2017-06-15T01:47:54.421Z,65.80
2017-06-15T01:50:29.836Z,65.10
2017-06-15T01:53:03.901Z,64.90
2017-06-15T01:55:37.501Z,64.90
2017-06-15T01:58:12.138Z,66.00
2017-06-15T02:00:46.901Z,66.70
2017-06-15T02:03:20.837Z,66.60
2017-06-15T02:05:55.329Z,65.20
2017-06-15T02:08:30.273Z,65.60
2017-06-15T02:11:03.996Z,65.60
2017-06-15T02:13:38.432Z,66.00
2017-06-15T02:16:12.397Z,65.90
2017-06-15T02:18:46.418Z,66.90
2017-06-15T02:21:20.135Z,66.40
2017-06-15T02:23:54.118Z,66.10
2017-06-15T02:26:27.744Z,65.00
2017-06-15T02:29:01.365Z,66.40
2017-06-15T02:31:35.173Z,68.50
2017-06-15T02:34:09.148Z,67.10
2017-06-15T02:36:43.633Z,66.30
2017-06-15T02:39:17.526Z,65.70
2017-06-15T02:41:51.220Z,66.50
2017-06-15T02:44:25.067Z,65.90
2017-06-15T02:46:58.772Z,64.80
2017-06-15T02:49:32.482Z,64.30
2017-06-15T02:52:06.177Z,66.00
2017-06-15T02:54:40.781Z,65.50
2017-06-15T02:57:14.758Z,65.50
2017-06-15T02:59:49.328Z,65.40
2017-06-15T03:02:23.778Z,64.70
2017-06-15T03:04:57.922Z,64.70
2017-06-15T03:07:31.644Z,65.30
2017-06-15T03:10:06.242Z,68.10
2017-06-15T03:12:40.737Z,68.50
2017-06-15T03:15:14.618Z,68.30
2017-06-15T03:17:48.266Z,68.60
2017-06-15T03:20:22.721Z,67.10
2017-06-15T03:22:56.605Z,67.10
2017-06-15T03:25:31.437Z,67.80
2017-06-15T03:28:05.196Z,66.50
2017-06-15T03:30:38.925Z,67.00
2017-06-15T03:33:13.464Z,67.00
2017-06-15T03:35:47.260Z,66.60
2017-06-15T03:38:21.136Z,66.60
2017-06-15T03:40:54.894Z,66.00
2017-06-15T03:43:28.718Z,66.40
2017-06-15T03:46:02.577Z,66.00
2017-06-15T03:48:36.329Z,66.90
2017-06-15T03:51:09.973Z,67.70
2017-06-15T03:53:43.593Z,66.70
2017-06-15T03:56:18.052Z,66.20
2017-06-15T03:58:52.621Z,65.70
2017-06-15T04:01:26.621Z,65.70
2017-06-15T04:04:01.149Z,65.80
2017-06-15T04:06:34.768Z,67.00
2017-06-15T04:09:09.190Z,66.70
2017-06-15T04:11:43.178Z,66.60
2017-06-15T04:14:17.778Z,67.10
2017-06-15T04:16:51.730Z,67.00
2017-06-15T04:19:25.885Z,66.60
2017-06-15T04:21:59.649Z,66.30
2017-06-15T04:24:33.389Z,67.00
2017-06-15T04:27:07.198Z,65.80
2017-06-15T04:29:42.488Z,67.50
2017-06-15T04:32:16.321Z,66.50
2017-06-15T04:34:50.053Z,67.60
2017-06-15T04:37:23.963Z,66.20
2017-06-15T04:39:57.909Z,65.70
2017-06-15T04:42:33.201Z,65.40
2017-06-15T04:45:07.088Z,65.40
2017-06-15T04:47:40.925Z,66.50
2017-06-15T04:50:15.451Z,66.50
2017-06-15T04:52:49.209Z,68.90
2017-06-15T04:55:24.362Z,66.70
2017-06-15T04:57:58.665Z,69.00
2017-06-15T05:00:32.246Z,67.20
2017-06-15T05:03:06.086Z,66.80
2017-06-15T05:05:41.410Z,67.30
2017-06-15T05:08:15.288Z,67.20
2017-06-15T05:10:48.920Z,66.90
2017-06-15T05:13:22.528Z,67.10
2017-06-15T05:15:56.248Z,66.20
2017-06-15T05:18:30.098Z,66.70
2017-06-15T05:21:03.811Z,64.80
2017-06-15T05:23:38.396Z,65.40
2017-06-15T05:26:13.176Z,65.40
2017-06-15T05:28:48.165Z,65.00
2017-06-15T05:31:22.637Z,64.60
2017-06-15T05:33:56.794Z,64.60
2017-06-15T05:36:30.502Z,65.00
2017-06-15T05:39:05.038Z,65.50
2017-06-15T05:41:38.861Z,65.40
2017-06-15T05:44:12.642Z,64.40
2017-06-15T05:46:46.265Z,67.10
2017-06-15T05:49:19.905Z,62.20
2017-06-15T05:51:53.645Z,61.00
2017-06-15T05:54:28.249Z,60.60
2017-06-15T05:57:02.081Z,60.40
2017-06-15T05:59:35.931Z,61.40
2017-06-15T06:02:09.686Z,60.70
2017-06-15T06:04:43.510Z,60.80
2017-06-15T06:07:17.088Z,60.50
2017-06-15T06:09:50.748Z,61.00
2017-06-15T06:12:24.378Z,60.40
2017-06-15T06:14:58.073Z,61.60
2017-06-15T06:17:31.704Z,61.50
2017-06-15T06:20:05.409Z,61.90
2017-06-15T06:22:39.033Z,62.30
2017-06-15T06:25:13.601Z,60.70
2017-06-15T06:27:47.341Z,61.60
2017-06-15T06:30:21.130Z,61.80
2017-06-15T06:32:54.754Z,62.10
2017-06-15T06:35:28.726Z,62.00
2017-06-15T06:38:02.354Z,60.70
2017-06-15T06:40:36.288Z,61.80
2017-06-15T06:43:10.033Z,61.60
2017-06-15T06:45:43.910Z,59.50
2017-06-15T06:48:17.593Z,58.10
2017-06-15T06:50:51.405Z,57.00
2017-06-15T06:53:25.965Z,57.30
2017-06-15T06:56:00.925Z,57.60
2017-06-15T06:58:35.425Z,58.30
2017-06-15T07:01:09.337Z,57.60
2017-06-15T07:03:43.953Z,57.40
2017-06-15T07:06:18.040Z,57.30
2017-06-15T07:08:51.918Z,58.40
2017-06-15T07:11:26.536Z,56.90
2017-06-15T07:14:00.394Z,56.80
2017-06-15T07:16:34.161Z,56.20
2017-06-15T07:19:07.852Z,56.00
2017-06-15T07:21:42.573Z,55.40
2017-06-15T07:24:16.540Z,55.40
2017-06-15T07:26:50.402Z,56.10
2017-06-15T07:29:24.140Z,54.50
2017-06-15T07:31:58.000Z,55.50
2017-06-15T07:34:31.673Z,56.20
2017-06-15T07:37:05.560Z,54.30
2017-06-15T07:39:39.281Z,54.70
2017-06-15T07:42:13.360Z,54.10
2017-06-15T07:44:47.813Z,55.10
2017-06-15T07:47:21.621Z,54.30
2017-06-15T07:49:56.970Z,55.50
2017-06-15T07:52:31.065Z,55.30
2017-06-15T07:55:04.730Z,54.80
2017-06-15T07:57:38.385Z,54.80
2017-06-15T08:00:12.137Z,53.90
2017-06-15T08:02:46.028Z,55.00
2017-06-15T08:05:19.645Z,55.50
2017-06-15T08:07:53.384Z,53.30
2017-06-15T08:10:27.204Z,54.80
2017-06-15T08:13:01.860Z,54.80
2017-06-15T08:15:35.880Z,54.90
2017-06-15T08:18:09.637Z,54.00
2017-06-15T08:20:44.172Z,55.60
2017-06-15T08:23:18.247Z,55.60
2017-06-15T08:25:52.016Z,54.00
2017-06-15T08:28:25.728Z,54.70
2017-06-15T08:31:00.217Z,53.10
2017-06-15T08:33:34.309Z,53.10
2017-06-15T08:36:07.986Z,55.40
2017-06-15T08:38:41.833Z,52.90
2017-06-15T08:41:16.364Z,52.80
2017-06-15T08:43:50.256Z,52.50
2017-06-15T08:46:25.623Z,52.00
2017-06-15T08:48:59.600Z,51.90
2017-06-15T08:51:34.133Z,52.40
2017-06-15T08:54:08.018Z,52.10
2017-06-15T08:56:41.652Z,52.50
2017-06-15T08:59:15.354Z,51.30
2017-06-15T09:01:48.989Z,51.70
2017-06-15T09:04:23.533Z,51.70
2017-06-15T09:06:58.308Z,52.00
2017-06-15T09:09:32.645Z,52.00
2017-06-15T09:12:06.276Z,51.80
2017-06-15T09:14:40.821Z,52.00
2017-06-15T09:17:14.812Z,52.00
2017-06-15T09:19:49.334Z,49.80
2017-06-15T09:22:23.112Z,49.80
2017-06-15T09:24:57.872Z,51.70
2017-06-15T09:27:31.783Z,51.60
2017-06-15T09:30:05.624Z,49.50
2017-06-15T09:32:39.476Z,50.60
2017-06-15T09:35:13.464Z,51.30
2017-06-15T09:37:48.004Z,51.80
2017-06-15T09:40:21.873Z,50.90
2017-06-15T09:42:56.304Z,51.90
2017-06-15T09:45:30.213Z,51.80
2017-06-15T09:48:04.641Z,52.10
2017-06-15T09:50:38.604Z,52.00
2017-06-15T09:53:13.076Z,48.10
2017-06-15T09:55:48.016Z,48.00
2017-06-15T09:58:21.693Z,48.60
2017-06-15T10:00:55.596Z,50.10
2017-06-15T10:03:30.133Z,49.20
2017-06-15T10:06:04.012Z,49.20
2017-06-15T10:08:38.665Z,50.50
2017-06-15T10:11:12.856Z,50.40
2017-06-15T10:13:47.292Z,49.30
2017-06-15T10:16:21.249Z,48.70
2017-06-15T10:18:55.008Z,50.30
2017-06-15T10:21:28.925Z,50.10
2017-06-15T10:24:03.497Z,49.80
2017-06-15T10:26:38.172Z,49.20
2017-06-15T10:29:12.789Z,49.10
2017-06-15T10:31:46.855Z,48.70
2017-06-15T10:34:20.516Z,47.20
2017-06-15T10:36:54.297Z,47.20
2017-06-15T10:39:28.056Z,47.00
2017-06-15T10:42:02.694Z,47.80
2017-06-15T10:44:36.496Z,47.60
2017-06-15T10:47:10.928Z,46.60
2017-06-15T10:49:44.873Z,46.50
2017-06-15T10:52:18.610Z,47.30
2017-06-15T10:54:52.333Z,48.00
2017-06-15T10:57:26.118Z,46.70
2017-06-15T11:00:01.432Z,44.40
2017-06-15T11:02:35.495Z,44.40
2017-06-15T11:05:09.177Z,45.70
2017-06-15T11:07:43.733Z,45.20
2017-06-15T11:10:17.576Z,45.10
2017-06-15T11:12:51.348Z,47.70
2017-06-15T11:15:25.709Z,48.90
2017-06-15T11:17:59.893Z,48.20
2017-06-15T11:20:34.368Z,44.60
2017-06-15T11:23:08.921Z,41.20
2017-06-15T11:25:43.697Z,42.30
2017-06-15T11:28:17.724Z,42.30
2017-06-15T11:30:52.210Z,41.00
2017-06-15T11:33:26.008Z,39.40
2017-06-15T11:35:59.688Z,38.50
2017-06-15T11:38:33.700Z,39.30
2017-06-15T11:41:08.269Z,37.50
2017-06-15T11:43:42.056Z,37.80
2017-06-15T11:46:17.316Z,37.10
2017-06-15T11:48:51.422Z,37.20
2017-06-15T11:51:25.889Z,36.60
2017-06-15T11:53:59.884Z,36.60
2017-06-15T11:56:33.565Z,36.20
2017-06-15T11:59:07.224Z,34.20
2017-06-15T12:01:40.949Z,36.30
2017-06-15T12:04:15.496Z,33.80
2017-06-15T12:06:50.744Z,35.70
2017-06-15T12:09:24.924Z,35.60
2017-06-15T12:11:59.410Z,33.40
2017-06-15T12:14:33.185Z,33.70
2017-06-15T12:17:07.697Z,35.40
2017-06-15T12:19:42.309Z,33.40
2017-06-15T12:22:16.854Z,33.30
2017-06-15T12:24:51.722Z,33.70
2017-06-15T12:27:25.580Z,33.70
2017-06-15T12:29:59.328Z,34.00
2017-06-15T12:32:33.038Z,34.80
2017-06-15T12:35:06.904Z,34.50
2017-06-15T12:37:40.729Z,34.50
2017-06-15T12:40:15.337Z,34.20
2017-06-15T12:42:49.152Z,34.10
2017-06-15T12:45:22.817Z,32.90
2017-06-15T12:47:57.399Z,32.80
2017-06-15T12:50:31.085Z,34.60
2017-06-15T12:53:05.626Z,34.20
2017-06-15T12:55:40.252Z,33.40
2017-06-15T12:58:14.077Z,33.10
2017-06-15T13:00:47.911Z,30.70
2017-06-15T13:03:22.520Z,37.00
2017-06-15T13:05:57.308Z,33.60
2017-06-15T13:08:31.972Z,32.50
2017-06-15T13:11:06.072Z,32.50
2017-06-15T13:13:40.608Z,30.70
2017-06-15T13:16:15.297Z,30.10
2017-06-15T13:18:49.400Z,30.10
2017-06-15T13:21:23.924Z,31.50
2017-06-15T13:23:57.857Z,31.40
2017-06-15T13:26:32.417Z,31.40
2017-06-15T13:29:07.034Z,31.70
2017-06-15T13:31:41.184Z,30.90
2017-06-15T13:34:14.744Z,29.70
2017-06-15T13:36:48.450Z,30.40
2017-06-15T13:39:23.793Z,32.40
2017-06-15T13:41:57.876Z,31.90
2017-06-15T13:44:31.594Z,30.60
2017-06-15T13:47:06.297Z,32.00
2017-06-15T13:49:40.053Z,32.10
2017-06-15T13:52:13.848Z,30.30
2017-06-15T13:54:47.574Z,35.10
2017-06-15T13:57:23.108Z,32.40
2017-06-15T13:59:56.786Z,32.20
2017-06-15T14:02:30.721Z,29.60
2017-06-15T14:05:05.165Z,31.40
2017-06-15T14:07:39.802Z,38.60
2017-06-15T14:10:14.586Z,39.20
2017-06-15T14:12:49.253Z,39.00
2017-06-15T14:15:23.840Z,37.20
2017-06-15T14:17:58.500Z,32.30
2017-06-15T14:20:32.515Z,32.20
2017-06-15T14:23:06.387Z,31.50
2017-06-15T14:25:41.628Z,29.20
2017-06-15T14:28:16.956Z,27.90
2017-06-15T14:30:51.296Z,27.90
2017-06-15T14:33:25.112Z,28.10
2017-06-15T14:35:58.830Z,27.70
2017-06-15T14:38:32.593Z,30.30
2017-06-15T14:41:07.156Z,33.30
2017-06-15T14:43:41.884Z,28.90
2017-06-15T14:46:15.692Z,28.10
2017-06-15T14:48:49.453Z,26.80
2017-06-15T14:51:23.153Z,26.30
2017-06-15T14:53:57.210Z,27.10
2017-06-15T14:56:31.732Z,23.60
2017-06-15T14:59:05.604Z,22.90
2017-06-15T15:01:40.229Z,23.40
2017-06-15T15:04:14.302Z,23.30
2017-06-15T15:06:48.849Z,23.80
2017-06-15T15:09:47.517Z,24.80
2017-06-15T15:12:22.589Z,24.70
2017-06-15T15:14:56.774Z,24.80
2017-06-15T15:17:32.148Z,25.00
2017-06-15T15:20:06.142Z,25.10
2017-06-15T15:22:40.586Z,26.00
2017-06-15T15:25:15.420Z,25.90
2017-06-15T15:27:49.153Z,25.90
2017-06-15T15:30:32.420Z,27.10
2017-06-15T15:33:06.809Z,27.00
2017-06-15T15:35:40.712Z,27.40
2017-06-15T15:38:14.408Z,27.40
2017-06-15T15:40:48.220Z,27.90
2017-06-15T15:43:21.818Z,27.20
2017-06-15T15:45:55.609Z,27.00
2017-06-15T15:48:30.212Z,29.40
2017-06-15T15:51:04.216Z,29.60
2017-06-15T15:53:37.952Z,27.00
2017-06-15T15:56:13.756Z,29.50
2017-06-15T15:58:48.301Z,30.10
2017-06-15T16:01:22.233Z,30.10
2017-06-15T16:03:56.732Z,30.30
2017-06-15T16:06:30.792Z,30.20
2017-06-15T16:09:04.515Z,30.50
2017-06-15T16:11:38.501Z,32.00
2017-06-15T16:14:13.078Z,33.60
2017-06-15T16:16:47.110Z,33.10
2017-06-15T16:19:20.841Z,35.20
2017-06-15T16:21:55.565Z,35.00
2017-06-15T16:24:29.572Z,34.30
2017-06-15T16:27:04.085Z,35.70
2017-06-15T16:29:37.857Z,34.10
2017-06-15T16:32:11.862Z,34.60
2017-06-15T16:34:46.305Z,38.00
2017-06-15T16:37:20.404Z,38.10
2017-06-15T16:39:54.874Z,36.50
2017-06-15T16:42:28.822Z,35.60
2017-06-15T16:45:02.524Z,35.50
2017-06-15T16:47:37.119Z,35.30
2017-06-15T16:50:11.716Z,37.20
2017-06-15T16:52:45.852Z,37.30
2017-06-15T16:55:19.442Z,38.00
2017-06-15T16:57:53.245Z,41.10
2017-06-15T17:00:27.073Z,37.70
2017-06-15T17:03:01.024Z,36.70
2017-06-15T17:05:34.745Z,38.10
2017-06-15T17:08:08.702Z,41.00
2017-06-15T17:10:43.981Z,44.80
2017-06-15T17:13:18.060Z,43.60
2017-06-15T17:15:51.842Z,41.90
2017-06-15T17:18:26.416Z,42.70
2017-06-15T17:21:00.206Z,42.70
2017-06-15T17:23:33.980Z,42.80
2017-06-15T17:26:07.728Z,45.50
2017-06-15T17:28:42.410Z,44.80
2017-06-15T17:31:16.321Z,44.80
2017-06-15T17:33:51.070Z,46.10
2017-06-15T17:36:24.903Z,45.80
2017-06-15T17:38:58.749Z,46.50
2017-06-15T17:41:32.321Z,46.80
2017-06-15T17:44:06.061Z,47.60
2017-06-15T17:46:39.785Z,45.70
2017-06-15T17:49:13.462Z,46.50
2017-06-15T17:51:47.990Z,46.90
2017-06-15T17:54:22.640Z,46.20
2017-06-15T17:56:56.806Z,45.60
2017-06-15T17:59:30.683Z,45.10
2017-06-15T18:02:04.305Z,44.30
2017-06-15T18:04:38.177Z,43.60
2017-06-15T18:07:12.673Z,45.80
2017-06-15T18:09:46.695Z,45.70
2017-06-15T18:12:20.357Z,47.00
2017-06-15T18:14:54.827Z,49.10
2017-06-15T18:17:28.678Z,49.00
2017-06-15T18:20:02.445Z,50.20
2017-06-15T18:22:37.753Z,52.90
2017-06-15T18:25:12.480Z,52.10
2017-06-15T18:27:46.349Z,52.20
2017-06-15T18:30:19.977Z,48.50
2017-06-15T18:32:53.759Z,50.60
2017-06-15T18:35:27.553Z,48.00
2017-06-15T18:38:01.156Z,48.20
2017-06-15T18:40:35.112Z,50.40
2017-06-15T18:43:09.497Z,50.30
2017-06-15T18:45:43.594Z,50.30
2017-06-15T18:48:18.134Z,52.20
2017-06-15T18:50:52.302Z,52.10
2017-06-15T18:53:26.007Z,52.10
2017-06-15T18:56:00.898Z,50.80
2017-06-15T18:58:35.398Z,48.70
2017-06-15T19:01:09.484Z,48.00
2017-06-15T19:03:43.242Z,44.90
2017-06-15T19:06:17.089Z,44.40
2017-06-15T19:08:50.869Z,44.70
2017-06-15T19:11:24.725Z,44.90
2017-06-15T19:13:58.377Z,45.40
2017-06-15T19:16:32.356Z,45.40
2017-06-15T19:19:06.972Z,45.50
2017-06-15T19:21:41.153Z,45.50
2017-06-15T19:24:14.840Z,46.00
2017-06-15T19:26:49.476Z,46.90
2017-06-15T19:29:23.368Z,46.90
2017-06-15T19:31:58.229Z,47.40
2017-06-15T19:34:32.803Z,47.70
2017-06-15T19:37:07.772Z,48.10
2017-06-15T19:39:41.712Z,48.00
2017-06-15T19:42:16.296Z,49.40
2017-06-15T19:44:50.164Z,49.70
2017-06-15T19:47:24.025Z,49.30
2017-06-15T19:49:58.590Z,50.70
2017-06-15T19:52:32.676Z,50.70
2017-06-15T19:55:06.401Z,50.20
2017-06-15T19:57:40.284Z,50.10
2017-06-15T20:00:13.912Z,52.20
2017-06-15T20:02:47.841Z,51.70
2017-06-15T20:05:21.572Z,52.40
2017-06-15T20:07:55.468Z,52.90
2017-06-15T20:10:29.186Z,52.20
2017-06-15T20:13:03.196Z,53.80
2017-06-15T20:15:37.656Z,52.80
2017-06-15T20:18:11.449Z,53.00
2017-06-15T20:20:52.653Z,53.80
2017-06-15T20:23:27.714Z,54.00
2017-06-15T20:26:01.655Z,54.00
2017-06-15T20:28:35.464Z,54.50
2017-06-15T20:31:09.357Z,54.80
2017-06-15T20:33:43.785Z,54.90
2017-06-15T20:36:17.463Z,54.90
2017-06-15T20:38:52.281Z,56.60
2017-06-15T20:41:27.090Z,56.60
2017-06-15T20:44:01.760Z,56.80
2017-06-15T20:46:36.341Z,56.90
2017-06-15T20:49:11.097Z,56.90
2017-06-15T20:51:45.005Z,56.80
2017-06-15T20:54:19.548Z,57.20
2017-06-15T20:56:53.466Z,57.10
2017-06-15T20:59:27.309Z,57.40
2017-06-15T21:02:01.040Z,57.40
2017-06-15T21:04:34.953Z,57.70
2017-06-15T21:07:08.576Z,57.90
2017-06-15T21:09:42.221Z,58.20
2017-06-15T21:12:15.861Z,58.50
2017-06-15T21:14:50.552Z,59.10
2017-06-15T21:17:24.388Z,58.90
2017-06-15T21:19:58.349Z,59.00
2017-06-15T21:22:32.117Z,59.40
2017-06-15T21:25:05.789Z,60.20
2017-06-15T21:27:41.116Z,60.10
2017-06-15T21:30:15.201Z,60.00
2017-06-15T21:32:49.748Z,60.90
2017-06-15T21:35:23.716Z,60.90
2017-06-15T21:37:57.416Z,61.10
2017-06-15T21:40:31.185Z,61.40
2017-06-15T21:43:05.689Z,62.00
2017-06-15T21:45:40.456Z,61.10
2017-06-15T21:48:15.345Z,61.20
2017-06-15T21:50:49.501Z,61.20
2017-06-15T21:53:23.912Z,61.00
2017-06-15T21:55:59.577Z,62.80
2017-06-15T21:58:34.156Z,61.80
2017-06-15T22:01:08.245Z,61.70
2017-06-15T22:03:42.788Z,62.90
2017-06-15T22:06:16.853Z,62.90
2017-06-15T22:08:51.228Z,62.70
2017-06-15T22:11:25.436Z,62.70
2017-06-15T22:13:59.088Z,62.20
2017-06-15T22:16:32.868Z,63.50
2017-06-15T22:19:06.652Z,63.40
2017-06-15T22:21:41.221Z,63.80
2017-06-15T22:24:15.154Z,63.70
2017-06-15T22:26:50.829Z,63.20
2017-06-15T22:29:24.585Z,63.10
2017-06-15T22:31:58.493Z,62.80
2017-06-15T22:34:32.100Z,64.60
2017-06-15T22:37:06.821Z,65.00
2017-06-15T22:39:40.772Z,65.00
2017-06-15T22:42:14.492Z,65.60
2017-06-15T22:44:48.129Z,66.00
2017-06-15T22:47:22.745Z,66.00
2017-06-15T22:49:56.764Z,65.20
2017-06-15T22:52:30.534Z,63.80
2017-06-15T22:55:05.056Z,64.40
2017-06-15T22:57:40.245Z,64.30
2017-06-15T23:00:14.718Z,65.10
2017-06-15T23:03:00.601Z,64.20
2017-06-15T23:05:34.456Z,62.60
2017-06-15T23:08:09.157Z,60.10
2017-06-15T23:10:42.984Z,60.10
2017-06-15T23:13:17.520Z,60.90
2017-06-15T23:15:51.521Z,60.80
2017-06-15T23:18:26.969Z,63.10
2017-06-15T23:21:00.780Z,63.10
2017-06-15T23:23:34.657Z,64.00
2017-06-15T23:26:08.380Z,62.80
2017-06-15T23:28:44.137Z,59.40
2017-06-15T23:31:17.874Z,59.30
2017-06-15T23:33:52.537Z,56.80
2017-06-15T23:36:26.443Z,56.70
2017-06-15T23:39:01.170Z,57.00
2017-06-15T23:41:35.936Z,56.70
2017-06-15T23:44:09.965Z,56.70
2017-06-15T23:46:44.425Z,55.60
2017-06-15T23:49:18.485Z,55.50
2017-06-15T23:51:52.958Z,53.70
2017-06-15T23:54:26.885Z,53.70
2017-06-15T23:57:01.430Z,52.50
2017-06-15T23:59:35.100Z,52.20
